Terminal Aerodrome Forecast
Issued by NWS

Current Version | Previous Version | Graphics & Text | Print | Product List | Glossary On
Versions: 1 2 3 4 5 6 7 8 9 10 11 12 13 14
000
FTUS41 KPBZ 222300
TAFMGW
TAF
KMGW 222320Z 2300/2324 18005KT P6SM OVC080
      TEMPO 2311/2315 BKN025
     FM231700 17006KT P6SM SCT080 BKN250=

USA.gov is the U.S. government's official web portal to all federal, state and local government web resources and services.